Flight Number: EUR1060 Duration: 7:00
Departure: Dubai Int'l (OMDB) at 04:30 Distance: 2959 Nm
Arrival: Gatwick Airport (EGKK) at 11:30 Equipment: B777

Weather Information
Dubai International Airport, United Arab Emirates (OMDB) 25-15N 055-20E 5M Jan 21, 2019 - 07:00 AM EST / 2019.01.21 1200 UTC
Wind: from the NW (320 degrees) at 12 MPH (10 KT) (direction variable):0
Visibility: greater than 7 mile(s):0 Temperature: 73 F (23 C) Dew Point: 48 F (9 C) Relative Humidity: 40% Pressure (altimeter): 30.00 in. Hg (1016 hPa)
ob: OMDB 211200Z 32010KT 280V010 CAVOK 23/09 Q1016 NOSIG cycle: 12
Sunrise: 03:07 Sunset: 13:51 (UTC)

London / Gatwick Airport, United Kingdom (EGKK) 51-09N 000-11W 0M Jan 21, 2019 - 06:50 AM EST / 2019.01.21 1150 UTC
Wind: from the SW (230 degrees) at 3 MPH (3 KT):0
Visibility: 2 mile(s):0
Sky conditions: mostly clear Weather: haze Temperature: 37 F (3 C) Dew Point: 33 F (1 C) Relative Humidity: 86% Pressure (altimeter): 30.21 in. Hg (1023 hPa)
ob: EGKK 211150Z 23003KT 4000 HZ FEW032 03/01 Q1023 cycle: 12
Sunrise: 07:56 Sunset: 16:27 (UTC)

TAF:2019/01/21 12:06 TAF EGKK 211057Z 2112/2218 20006KT 1400 BR FEW001 SCT030 BECMG 2112/2115 9999 NSW PROB40 2112/2113 BKN001 PROB40 TEMPO 2115/2122 6000 TEMPO 2122/2205 6000 -RADZ BKN012 PROB30 TEMPO 2200/2204 19015G25KT 4000 RA BKN007 BECMG 2203/2206 28010KT TEMPO 2213/2218 6000 -SHRA BKN010 PROB30 TEMPO 2213/2218 3000 SHRA -SHRASN BKN005

Previous Pireps for this route
Date Aircraft Flight time Fuel used Landing rate On time
2013-01-17B7777.141104940No
2013-02-02B7776.551106000Yes
2013-10-17B7778.231792230No
2013-12-26B77707.2487977-362No
2014-05-25B77708.1784347-388No
2014-09-20B7777.541220890Yes
2014-11-28B77707.0779217-342No
2015-05-23B74709.02166683-115Charter
2015-10-13B737645211-645Charter
2016-04-25B7778.151130No
2016-05-28B7776.541330000No
(pireps marked green are flown by you)

Route map